sensor_id;sensor_type;location;lat;lon;timestamp;pressure;altitude;pressure_sealevel;temperature;humidity
37610;BME280;23457;51.966;8.230;2022-11-20T00:00:50;100647.84;;;-2.01;89.93
37610;BME280;23457;51.966;8.230;2022-11-20T00:03:16;100648.31;;;-2.33;90.31
37610;BME280;23457;51.966;8.230;2022-11-20T00:05:44;100637.81;;;-2.37;91.29
37610;BME280;23457;51.966;8.230;2022-11-20T00:08:11;100634.94;;;-2.17;92.01
37610;BME280;23457;51.966;8.230;2022-11-20T00:10:41;100636.31;;;-2.09;91.21
37610;BME280;23457;51.966;8.230;2022-11-20T00:13:07;100634.06;;;-2.04;90.99
37610;BME280;23457;51.966;8.230;2022-11-20T00:15:34;100622.56;;;-2.24;90.52
37610;BME280;23457;51.966;8.230;2022-11-20T00:18:01;100620.72;;;-2.13;90.44
37610;BME280;23457;51.966;8.230;2022-11-20T00:20:27;100618.06;;;-2.15;90.28
37610;BME280;23457;51.966;8.230;2022-11-20T00:22:54;100628.88;;;-2.19;89.90
37610;BME280;23457;51.966;8.230;2022-11-20T00:25:21;100634.53;;;-2.23;90.54
37610;BME280;23457;51.966;8.230;2022-11-20T00:27:47;100621.59;;;-2.13;90.38
37610;BME280;23457;51.966;8.230;2022-11-20T00:30:14;100622.78;;;-2.08;90.33
37610;BME280;23457;51.966;8.230;2022-11-20T00:32:41;100632.56;;;-2.01;89.96
37610;BME280;23457;51.966;8.230;2022-11-20T00:35:08;100629.66;;;-1.94;89.60
37610;BME280;23457;51.966;8.230;2022-11-20T00:37:34;100627.31;;;-1.91;89.31
37610;BME280;23457;51.966;8.230;2022-11-20T00:40:01;100637.56;;;-2.42;89.87
37610;BME280;23457;51.966;8.230;2022-11-20T00:42:28;100634.94;;;-2.30;90.26
37610;BME280;23457;51.966;8.230;2022-11-20T00:44:55;100622.56;;;-2.24;90.58
37610;BME280;23457;51.966;8.230;2022-11-20T00:47:21;100629.06;;;-2.29;90.11
37610;BME280;23457;51.966;8.230;2022-11-20T00:49:48;100623.25;;;-2.27;90.06
37610;BME280;23457;51.966;8.230;2022-11-20T00:52:15;100621.00;;;-2.35;90.07
37610;BME280;23457;51.966;8.230;2022-11-20T00:54:41;100619.75;;;-2.29;89.78
37610;BME280;23457;51.966;8.230;2022-11-20T00:57:08;100617.38;;;-2.39;89.43
37610;BME280;23457;51.966;8.230;2022-11-20T00:59:34;100619.34;;;-2.35;90.35
37610;BME280;23457;51.966;8.230;2022-11-20T01:02:01;100623.34;;;-2.25;89.73
37610;BME280;23457;51.966;8.230;2022-11-20T01:04:28;100628.88;;;-2.19;89.74
37610;BME280;23457;51.966;8.230;2022-11-20T01:06:55;100642.97;;;-2.11;89.50
37610;BME280;23457;51.966;8.230;2022-11-20T01:09:22;100632.88;;;-2.09;89.34
37610;BME280;23457;51.966;8.230;2022-11-20T01:11:49;100633.97;;;-2.06;88.38
37610;BME280;23457;51.966;8.230;2022-11-20T01:14:18;100633.28;;;-2.03;88.64
37610;BME280;23457;51.966;8.230;2022-11-20T01:16:46;100631.41;;;-2.06;89.00
37610;BME280;23457;51.966;8.230;2022-11-20T01:19:19;100633.34;;;-2.02;88.05
37610;BME280;23457;51.966;8.230;2022-11-20T01:21:49;100637.19;;;-2.60;88.47
37610;BME280;23457;51.966;8.230;2022-11-20T01:24:18;100617.38;;;-2.77;89.74
37610;BME280;23457;51.966;8.230;2022-11-20T01:26:47;100634.22;;;-2.79;90.69
37610;BME280;23457;51.966;8.230;2022-11-20T01:29:18;100649.34;;;-2.56;90.71
37610;BME280;23457;51.966;8.230;2022-11-20T01:31:45;100647.81;;;-2.54;90.66
37610;BME280;23457;51.966;8.230;2022-11-20T01:34:15;100653.28;;;-2.47;89.63
37610;BME280;23457;51.966;8.230;2022-11-20T01:36:43;100637.06;;;-2.36;89.78
37610;BME280;23457;51.966;8.230;2022-11-20T01:39:16;100634.75;;;-2.20;87.92
37610;BME280;23457;51.966;8.230;2022-11-20T01:41:44;100632.16;;;-2.33;86.80
37610;BME280;23457;51.966;8.230;2022-11-20T01:47:17;100622.72;;;-2.85;90.39
37610;BME280;23457;51.966;8.230;2022-11-20T01:49:52;100624.66;;;-2.70;90.21
37610;BME280;23457;51.966;8.230;2022-11-20T01:52:22;100622.72;;;-2.61;89.42
37610;BME280;23457;51.966;8.230;2022-11-20T01:54:57;100621.72;;;-2.63;89.87
37610;BME280;23457;51.966;8.230;2022-11-20T01:57:29;100626.91;;;-2.61;89.58
37610;BME280;23457;51.966;8.230;2022-11-20T02:00:02;100634.47;;;-2.49;89.92
37610;BME280;23457;51.966;8.230;2022-11-20T02:02:39;100624.97;;;-2.52;89.24
37610;BME280;23457;51.966;8.230;2022-11-20T02:05:32;100618.06;;;-2.41;88.64
37610;BME280;23457;51.966;8.230;2022-11-20T02:08:00;100616.47;;;-2.39;89.02
37610;BME280;23457;51.966;8.230;2022-11-20T02:10:29;100613.47;;;-2.34;88.50
37610;BME280;23457;51.966;8.230;2022-11-20T02:12:56;100610.41;;;-2.55;87.60
37610;BME280;23457;51.966;8.230;2022-11-20T02:15:42;100591.94;;;-2.77;88.54
37610;BME280;23457;51.966;8.230;2022-11-20T02:18:10;100598.66;;;-2.91;88.49
37610;BME280;23457;51.966;8.230;2022-11-20T02:20:40;100588.00;;;-2.85;89.41
37610;BME280;23457;51.966;8.230;2022-11-20T02:23:12;100584.94;;;-2.68;89.01
37610;BME280;23457;51.966;8.230;2022-11-20T02:25:43;100594.88;;;-2.84;89.06
37610;BME280;23457;51.966;8.230;2022-11-20T02:28:12;100598.34;;;-2.95;91.14
37610;BME280;23457;51.966;8.230;2022-11-20T02:30:39;100601.16;;;-2.79;90.45
37610;BME280;23457;51.966;8.230;2022-11-20T02:33:06;100586.47;;;-2.83;89.73
37610;BME280;23457;51.966;8.230;2022-11-20T02:38:02;100574.88;;;-2.91;89.08
37610;BME280;23457;51.966;8.230;2022-11-20T02:40:29;100577.28;;;-2.81;89.84
37610;BME280;23457;51.966;8.230;2022-11-20T02:42:56;100574.88;;;-2.66;88.84
37610;BME280;23457;51.966;8.230;2022-11-20T02:45:24;100570.91;;;-2.74;88.03
37610;BME280;23457;51.966;8.230;2022-11-20T02:47:51;100572.75;;;-2.85;88.83
37610;BME280;23457;51.966;8.230;2022-11-20T02:50:18;100570.09;;;-2.86;90.00
37610;BME280;23457;51.966;8.230;2022-11-20T02:52:44;100555.53;;;-2.89;89.65
37610;BME280;23457;51.966;8.230;2022-11-20T02:55:11;100557.06;;;-2.91;90.06
37610;BME280;23457;51.966;8.230;2022-11-20T02:57:38;100533.91;;;-2.96;89.32
37610;BME280;23457;51.966;8.230;2022-11-20T03:00:06;100558.44;;;-2.96;89.61
37610;BME280;23457;51.966;8.230;2022-11-20T03:02:33;100553.16;;;-3.49;91.37
37610;BME280;23457;51.966;8.230;2022-11-20T03:05:00;100567.63;;;-3.23;91.99
37610;BME280;23457;51.966;8.230;2022-11-20T03:07:27;100571.72;;;-3.25;90.63
37610;BME280;23457;51.966;8.230;2022-11-20T03:09:54;100569.81;;;-3.16;90.75
37610;BME280;23457;51.966;8.230;2022-11-20T03:12:20;100576.19;;;-3.09;90.30
37610;BME280;23457;51.966;8.230;2022-11-20T03:14:47;100572.16;;;-2.94;90.99
37610;BME280;23457;51.966;8.230;2022-11-20T03:17:18;100562.38;;;-2.88;89.79
37610;BME280;23457;51.966;8.230;2022-11-20T03:19:45;100563.00;;;-2.79;88.83
37610;BME280;23457;51.966;8.230;2022-11-20T03:22:12;100572.28;;;-2.79;87.43
37610;BME280;23457;51.966;8.230;2022-11-20T03:24:38;100570.91;;;-3.12;88.40
37610;BME280;23457;51.966;8.230;2022-11-20T03:27:05;100565.75;;;-3.26;90.80
37610;BME280;23457;51.966;8.230;2022-11-20T03:29:31;100552.06;;;-3.28;90.30
37610;BME280;23457;51.966;8.230;2022-11-20T03:31:58;100559.50;;;-3.31;90.87
37610;BME280;23457;51.966;8.230;2022-11-20T03:34:25;100565.03;;;-3.11;90.07
37610;BME280;23457;51.966;8.230;2022-11-20T03:36:52;100565.47;;;-3.30;90.38
37610;BME280;23457;51.966;8.230;2022-11-20T03:39:18;100564.59;;;-3.31;90.45
37610;BME280;23457;51.966;8.230;2022-11-20T03:41:45;100568.31;;;-3.26;89.94
37610;BME280;23457;51.966;8.230;2022-11-20T03:44:12;100569.84;;;-3.28;89.79
37610;BME280;23457;51.966;8.230;2022-11-20T03:46:39;100560.47;;;-3.04;88.83
37610;BME280;23457;51.966;8.230;2022-11-20T03:49:06;100559.91;;;-3.25;88.66
37610;BME280;23457;51.966;8.230;2022-11-20T03:51:35;100558.28;;;-3.36;88.51
37610;BME280;23457;51.966;8.230;2022-11-20T03:54:06;100551.59;;;-3.47;89.86
37610;BME280;23457;51.966;8.230;2022-11-20T03:56:36;100552.00;;;-3.41;89.95
37610;BME280;23457;51.966;8.230;2022-11-20T03:59:03;100553.81;;;-3.27;89.87
37610;BME280;23457;51.966;8.230;2022-11-20T04:01:33;100558.13;;;-3.26;88.87
37610;BME280;23457;51.966;8.230;2022-11-20T04:04:00;100531.91;;;-3.38;89.26
37610;BME280;23457;51.966;8.230;2022-11-20T04:06:29;100546.97;;;-3.28;87.87
37610;BME280;23457;51.966;8.230;2022-11-20T04:08:57;100550.63;;;-3.49;88.78
37610;BME280;23457;51.966;8.230;2022-11-20T04:11:30;100555.31;;;-3.42;89.18
37610;BME280;23457;51.966;8.230;2022-11-20T04:13:58;100551.94;;;-3.42;89.43
37610;BME280;23457;51.966;8.230;2022-11-20T04:16:27;100552.84;;;-3.29;89.05
37610;BME280;23457;51.966;8.230;2022-11-20T04:18:55;100553.22;;;-3.36;87.91
37610;BME280;23457;51.966;8.230;2022-11-20T04:21:23;100550.66;;;-3.36;89.38
37610;BME280;23457;51.966;8.230;2022-11-20T04:23:50;100553.06;;;-3.26;89.21
37610;BME280;23457;51.966;8.230;2022-11-20T04:26:17;100554.50;;;-3.29;89.50
37610;BME280;23457;51.966;8.230;2022-11-20T04:28:44;100549.78;;;-3.36;89.18
37610;BME280;23457;51.966;8.230;2022-11-20T04:31:12;100561.47;;;-3.27;89.89
37610;BME280;23457;51.966;8.230;2022-11-20T04:33:39;100552.59;;;-3.20;88.21
37610;BME280;23457;51.966;8.230;2022-11-20T04:36:06;100549.13;;;-3.34;89.01
37610;BME280;23457;51.966;8.230;2022-11-20T04:38:33;100553.09;;;-3.37;89.27
37610;BME280;23457;51.966;8.230;2022-11-20T04:41:00;100553.44;;;-3.33;89.39
37610;BME280;23457;51.966;8.230;2022-11-20T04:43:27;100549.78;;;-3.36;88.66
37610;BME280;23457;51.966;8.230;2022-11-20T04:45:54;100555.31;;;-3.30;88.80
37610;BME280;23457;51.966;8.230;2022-11-20T04:48:21;100551.97;;;-3.66;88.03
37610;BME280;23457;51.966;8.230;2022-11-20T04:50:48;100548.88;;;-3.98;90.32
37610;BME280;23457;51.966;8.230;2022-11-20T04:53:14;100550.84;;;-3.94;90.64
37610;BME280;23457;51.966;8.230;2022-11-20T04:55:41;100552.97;;;-3.64;90.76
37610;BME280;23457;51.966;8.230;2022-11-20T04:58:08;100543.19;;;-3.71;90.66
37610;BME280;23457;51.966;8.230;2022-11-20T05:00:34;100553.22;;;-3.72;89.86
37610;BME280;23457;51.966;8.230;2022-11-20T05:03:01;100551.25;;;-3.76;90.63
37610;BME280;23457;51.966;8.230;2022-11-20T05:05:27;100559.06;;;-3.73;90.81
37610;BME280;23457;51.966;8.230;2022-11-20T05:07:57;100550.31;;;-3.65;90.03
37610;BME280;23457;51.966;8.230;2022-11-20T05:10:27;100546.47;;;-3.60;90.06
37610;BME280;23457;51.966;8.230;2022-11-20T05:12:53;100542.00;;;-3.51;89.54
37610;BME280;23457;51.966;8.230;2022-11-20T05:15:20;100546.50;;;-3.72;88.60
37610;BME280;23457;51.966;8.230;2022-11-20T05:17:47;100547.38;;;-3.71;89.02
37610;BME280;23457;51.966;8.230;2022-11-20T05:20:14;100546.19;;;-3.88;89.29
37610;BME280;23457;51.966;8.230;2022-11-20T05:22:41;100549.06;;;-3.83;89.85
37610;BME280;23457;51.966;8.230;2022-11-20T05:25:07;100550.69;;;-3.72;90.06
37610;BME280;23457;51.966;8.230;2022-11-20T05:27:34;100542.59;;;-3.55;89.59
37610;BME280;23457;51.966;8.230;2022-11-20T05:30:01;100544.75;;;-3.48;89.08
37610;BME280;23457;51.966;8.230;2022-11-20T05:32:27;100540.03;;;-3.55;88.64
37610;BME280;23457;51.966;8.230;2022-11-20T05:34:54;100538.28;;;-3.56;89.25
37610;BME280;23457;51.966;8.230;2022-11-20T05:37:20;100536.81;;;-3.52;89.61
37610;BME280;23457;51.966;8.230;2022-11-20T05:39:47;100540.59;;;-3.59;88.85
37610;BME280;23457;51.966;8.230;2022-11-20T05:42:13;100546.31;;;-3.50;90.27
37610;BME280;23457;51.966;8.230;2022-11-20T05:44:58;100539.47;;;-3.51;90.16
37610;BME280;23457;51.966;8.230;2022-11-20T05:47:30;100536.34;;;-3.47;89.77
37610;BME280;23457;51.966;8.230;2022-11-20T05:49:57;100539.22;;;-3.42;89.72
37610;BME280;23457;51.966;8.230;2022-11-20T05:52:24;100544.50;;;-3.39;89.86
37610;BME280;23457;51.966;8.230;2022-11-20T05:54:50;100539.63;;;-3.36;89.41
37610;BME280;23457;51.966;8.230;2022-11-20T05:57:17;100536.19;;;-3.37;89.47
37610;BME280;23457;51.966;8.230;2022-11-20T05:59:43;100545.16;;;-3.42;89.58
37610;BME280;23457;51.966;8.230;2022-11-20T06:02:10;100532.88;;;-3.36;89.48
37610;BME280;23457;51.966;8.230;2022-11-20T06:04:37;100537.97;;;-3.36;89.21
37610;BME280;23457;51.966;8.230;2022-11-20T06:07:04;100533.56;;;-3.38;89.22
37610;BME280;23457;51.966;8.230;2022-11-20T06:09:31;100533.38;;;-3.28;88.11
37610;BME280;23457;51.966;8.230;2022-11-20T06:11:58;100535.88;;;-3.41;87.70
37610;BME280;23457;51.966;8.230;2022-11-20T06:14:24;100539.00;;;-3.45;88.88
37610;BME280;23457;51.966;8.230;2022-11-20T06:16:51;100541.84;;;-3.41;88.07
37610;BME280;23457;51.966;8.230;2022-11-20T06:19:17;100542.53;;;-3.43;88.64
37610;BME280;23457;51.966;8.230;2022-11-20T06:21:44;100543.41;;;-3.43;88.99
37610;BME280;23457;51.966;8.230;2022-11-20T06:24:11;100538.13;;;-3.46;88.38
37610;BME280;23457;51.966;8.230;2022-11-20T06:26:37;100536.63;;;-3.31;88.42
37610;BME280;23457;51.966;8.230;2022-11-20T06:29:04;100540.28;;;-3.39;88.37
37610;BME280;23457;51.966;8.230;2022-11-20T06:31:30;100538.69;;;-3.50;89.04
37610;BME280;23457;51.966;8.230;2022-11-20T06:34:01;100545.91;;;-3.56;90.11
37610;BME280;23457;51.966;8.230;2022-11-20T06:36:27;100543.00;;;-3.49;90.93
37610;BME280;23457;51.966;8.230;2022-11-20T06:38:53;100536.19;;;-3.37;90.31
37610;BME280;23457;51.966;8.230;2022-11-20T06:41:21;100534.97;;;-3.30;89.86
37610;BME280;23457;51.966;8.230;2022-11-20T06:43:47;100532.72;;;-3.26;89.96
37610;BME280;23457;51.966;8.230;2022-11-20T06:46:15;100536.31;;;-3.10;90.39
37610;BME280;23457;51.966;8.230;2022-11-20T06:48:43;100538.03;;;-3.22;90.97
37610;BME280;23457;51.966;8.230;2022-11-20T06:51:10;100534.31;;;-3.14;90.49
37610;BME280;23457;51.966;8.230;2022-11-20T06:53:37;100530.19;;;-3.50;91.18
37610;BME280;23457;51.966;8.230;2022-11-20T06:56:04;100535.00;;;-3.42;92.44
37610;BME280;23457;51.966;8.230;2022-11-20T06:58:31;100539.69;;;-3.23;92.29
37610;BME280;23457;51.966;8.230;2022-11-20T07:00:58;100543.09;;;-3.22;92.56
37610;BME280;23457;51.966;8.230;2022-11-20T07:03:25;100549.22;;;-3.07;92.34
37610;BME280;23457;51.966;8.230;2022-11-20T07:05:54;100544.06;;;-2.96;91.29
37610;BME280;23457;51.966;8.230;2022-11-20T07:08:20;100555.19;;;-3.07;90.72
37610;BME280;23457;51.966;8.230;2022-11-20T07:10:47;100552.81;;;-3.04;91.81
37610;BME280;23457;51.966;8.230;2022-11-20T07:13:13;100558.97;;;-3.13;91.37
37610;BME280;23457;51.966;8.230;2022-11-20T07:15:40;100569.34;;;-3.10;91.48
37610;BME280;23457;51.966;8.230;2022-11-20T07:18:06;100559.34;;;-2.96;91.70
37610;BME280;23457;51.966;8.230;2022-11-20T07:20:33;100562.13;;;-2.79;91.16
37610;BME280;23457;51.966;8.230;2022-11-20T07:23:00;100572.16;;;-2.94;90.74
37610;BME280;23457;51.966;8.230;2022-11-20T07:25:26;100568.94;;;-2.92;91.98
37610;BME280;23457;51.966;8.230;2022-11-20T07:27:59;100566.81;;;-3.10;91.72
37610;BME280;23457;51.966;8.230;2022-11-20T07:30:27;100565.41;;;-3.18;92.28
37610;BME280;23457;51.966;8.230;2022-11-20T07:32:54;100563.28;;;-3.12;92.19
37610;BME280;23457;51.966;8.230;2022-11-20T07:35:22;100565.97;;;-2.98;91.99
37610;BME280;23457;51.966;8.230;2022-11-20T07:37:49;100567.84;;;-2.95;92.42
37610;BME280;23457;51.966;8.230;2022-11-20T07:40:15;100571.00;;;-2.86;92.31
37610;BME280;23457;51.966;8.230;2022-11-20T07:42:49;100567.31;;;-2.65;92.05
37610;BME280;23457;51.966;8.230;2022-11-20T07:45:16;100563.03;;;-2.53;91.12
37610;BME280;23457;51.966;8.230;2022-11-20T07:47:43;100560.06;;;-2.72;91.12
37610;BME280;23457;51.966;8.230;2022-11-20T07:50:10;100570.56;;;-3.05;93.16
37610;BME280;23457;51.966;8.230;2022-11-20T07:52:36;100565.81;;;-3.12;93.86
37610;BME280;23457;51.966;8.230;2022-11-20T07:55:03;100563.84;;;-2.78;94.18
37610;BME280;23457;51.966;8.230;2022-11-20T07:57:30;100570.84;;;-2.63;93.13
37610;BME280;23457;51.966;8.230;2022-11-20T07:59:56;100567.41;;;-3.01;94.18
37610;BME280;23457;51.966;8.230;2022-11-20T08:02:23;100567.31;;;-2.65;93.88
37610;BME280;23457;51.966;8.230;2022-11-20T08:04:49;100567.06;;;-2.56;94.15
37610;BME280;23457;51.966;8.230;2022-11-20T08:07:16;100565.00;;;-2.48;94.11
37610;BME280;23457;51.966;8.230;2022-11-20T08:09:42;100568.53;;;-2.46;93.99
37610;BME280;23457;51.966;8.230;2022-11-20T08:12:14;100565.78;;;-2.36;93.51
37610;BME280;23457;51.966;8.230;2022-11-20T08:15:02;100553.25;;;-2.46;93.79
37610;BME280;23457;51.966;8.230;2022-11-20T08:17:33;100549.25;;;-2.56;93.99
37610;BME280;23457;51.966;8.230;2022-11-20T08:20:00;100558.94;;;-2.37;94.66
37610;BME280;23457;51.966;8.230;2022-11-20T08:22:26;100550.22;;;-2.28;93.29
37610;BME280;23457;51.966;8.230;2022-11-20T08:24:53;100551.97;;;-2.53;95.23
37610;BME280;23457;51.966;8.230;2022-11-20T08:27:19;100543.84;;;-2.08;94.93
37610;BME280;23457;51.966;8.230;2022-11-20T08:29:46;100548.38;;;-2.04;93.75
37610;BME280;23457;51.966;8.230;2022-11-20T08:32:12;100542.84;;;-1.84;93.66
37610;BME280;23457;51.966;8.230;2022-11-20T08:34:39;100553.81;;;-1.85;93.41
37610;BME280;23457;51.966;8.230;2022-11-20T08:37:05;100551.56;;;-1.80;93.71
37610;BME280;23457;51.966;8.230;2022-11-20T08:39:32;100546.34;;;-1.68;93.97
37610;BME280;23457;51.966;8.230;2022-11-20T08:41:58;100551.41;;;-1.55;92.39
37610;BME280;23457;51.966;8.230;2022-11-20T08:44:25;100549.44;;;-1.59;92.70
37610;BME280;23457;51.966;8.230;2022-11-20T08:46:51;100536.34;;;-1.65;92.68
37610;BME280;23457;51.966;8.230;2022-11-20T08:49:18;100548.66;;;-1.58;92.49
37610;BME280;23457;51.966;8.230;2022-11-20T08:51:45;100552.16;;;-1.43;93.11
37610;BME280;23457;51.966;8.230;2022-11-20T08:54:14;100550.34;;;-1.31;92.63
37610;BME280;23457;51.966;8.230;2022-11-20T08:56:41;100552.28;;;-1.27;92.83
37610;BME280;23457;51.966;8.230;2022-11-20T08:59:07;100537.06;;;-1.40;93.66
37610;BME280;23457;51.966;8.230;2022-11-20T09:01:54;100537.63;;;-1.44;94.16
37610;BME280;23457;51.966;8.230;2022-11-20T09:04:20;100538.44;;;-1.45;94.77
37610;BME280;23457;51.966;8.230;2022-11-20T09:06:47;100538.13;;;-1.22;94.56
37610;BME280;23457;51.966;8.230;2022-11-20T09:09:17;100536.84;;;-1.00;93.29
37610;BME280;23457;51.966;8.230;2022-11-20T09:11:45;100523.84;;;-1.05;93.00
37610;BME280;23457;51.966;8.230;2022-11-20T09:14:11;100528.94;;;-1.05;93.73
37610;BME280;23457;51.966;8.230;2022-11-20T09:16:38;100540.34;;;-1.13;95.39
37610;BME280;23457;51.966;8.230;2022-11-20T09:19:04;100535.97;;;-1.16;95.44
37610;BME280;23457;51.966;8.230;2022-11-20T09:21:51;100526.50;;;-1.03;96.81
37610;BME280;23457;51.966;8.230;2022-11-20T09:24:24;100538.53;;;-0.86;95.90
37610;BME280;23457;51.966;8.230;2022-11-20T09:26:51;100532.38;;;-0.75;96.47
37610;BME280;23457;51.966;8.230;2022-11-20T09:29:17;100533.34;;;-0.73;96.27
37610;BME280;23457;51.966;8.230;2022-11-20T09:31:45;100524.03;;;-0.58;96.49
37610;BME280;23457;51.966;8.230;2022-11-20T09:34:11;100529.28;;;-0.25;95.50
37610;BME280;23457;51.966;8.230;2022-11-20T09:36:38;100520.66;;;-0.27;95.83
37610;BME280;23457;51.966;8.230;2022-11-20T09:39:04;100524.50;;;-0.19;95.69
37610;BME280;23457;51.966;8.230;2022-11-20T09:54:52;100516.28;;;0.17;95.68
37610;BME280;23457;51.966;8.230;2022-11-20T09:57:23;100497.78;;;0.21;95.47
37610;BME280;23457;51.966;8.230;2022-11-20T09:59:59;100507.66;;;0.15;95.65
37610;BME280;23457;51.966;8.230;2022-11-20T10:05:13;100494.59;;;0.58;94.88
37610;BME280;23457;51.966;8.230;2022-11-20T10:18:13;100492.78;;;1.05;93.73
37610;BME280;23457;51.966;8.230;2022-11-20T10:31:39;100468.22;;;1.27;93.68
37610;BME280;23457;51.966;8.230;2022-11-20T10:37:22;100461.16;;;1.57;93.02
37610;BME280;23457;51.966;8.230;2022-11-20T10:39:44;100467.47;;;1.63;92.31
37610;BME280;23457;51.966;8.230;2022-11-20T10:42:15;100453.97;;;1.67;91.88
37610;BME280;23457;51.966;8.230;2022-11-20T10:44:47;100460.44;;;1.59;92.01
37610;BME280;23457;51.966;8.230;2022-11-20T10:47:35;100441.63;;;1.76;91.50
37610;BME280;23457;51.966;8.230;2022-11-20T10:50:04;100436.69;;;1.81;91.54
37610;BME280;23457;51.966;8.230;2022-11-20T11:00:16;100438.34;;;1.98;92.28
37610;BME280;23457;51.966;8.230;2022-11-20T11:02:47;100432.56;;;2.02;92.98
37610;BME280;23457;51.966;8.230;2022-11-20T11:07:51;100425.34;;;2.32;92.44
37610;BME280;23457;51.966;8.230;2022-11-20T11:13:04;100408.88;;;2.66;92.20
37610;BME280;23457;51.966;8.230;2022-11-20T11:15:38;100409.50;;;2.81;92.32
37610;BME280;23457;51.966;8.230;2022-11-20T11:18:06;100401.91;;;3.03;91.09
37610;BME280;23457;51.966;8.230;2022-11-20T11:20:34;100397.97;;;2.92;91.14
37610;BME280;23457;51.966;8.230;2022-11-20T11:23:02;100395.25;;;2.87;89.51
37610;BME280;23457;51.966;8.230;2022-11-20T11:25:30;100399.56;;;2.88;90.44
37610;BME280;23457;51.966;8.230;2022-11-20T11:27:58;100404.25;;;3.19;89.81
37610;BME280;23457;51.966;8.230;2022-11-20T11:30:25;100395.97;;;3.06;90.03
37610;BME280;23457;51.966;8.230;2022-11-20T11:33:05;100392.03;;;3.35;88.61
37610;BME280;23457;51.966;8.230;2022-11-20T11:35:38;100392.91;;;3.35;87.58
37610;BME280;23457;51.966;8.230;2022-11-20T11:38:06;100381.53;;;3.51;85.72
37610;BME280;23457;51.966;8.230;2022-11-20T11:40:34;100379.72;;;3.48;86.55
37610;BME280;23457;51.966;8.230;2022-11-20T11:43:06;100375.44;;;3.27;87.99
37610;BME280;23457;51.966;8.230;2022-11-20T11:45:53;100380.00;;;3.56;85.99
37610;BME280;23457;51.966;8.230;2022-11-20T11:48:21;100380.72;;;3.52;86.52
37610;BME280;23457;51.966;8.230;2022-11-20T11:50:48;100380.13;;;3.59;88.00
37610;BME280;23457;51.966;8.230;2022-11-20T11:53:19;100380.84;;;3.77;87.76
37610;BME280;23457;51.966;8.230;2022-11-20T11:55:52;100380.25;;;3.62;85.38
37610;BME280;23457;51.966;8.230;2022-11-20T12:04:37;100381.47;;;3.27;87.18
37610;BME280;23457;51.966;8.230;2022-11-20T12:06:37;100375.19;;;3.41;86.47
37610;BME280;23457;51.966;8.230;2022-11-20T12:09:05;100369.16;;;3.41;87.77
37610;BME280;23457;51.966;8.230;2022-11-20T12:11:49;100365.78;;;3.64;85.70
37610;BME280;23457;51.966;8.230;2022-11-20T12:14:33;100360.22;;;3.53;86.26
37610;BME280;23457;51.966;8.230;2022-11-20T12:17:01;100357.72;;;3.77;88.49
37610;BME280;23457;51.966;8.230;2022-11-20T12:19:31;100355.28;;;4.04;85.30
37610;BME280;23457;51.966;8.230;2022-11-20T12:39:55;100312.03;;;3.94;84.46
37610;BME280;23457;51.966;8.230;2022-11-20T12:42:27;100333.59;;;4.21;85.19
37610;BME280;23457;51.966;8.230;2022-11-20T12:45:37;100339.50;;;4.19;86.91
37610;BME280;23457;51.966;8.230;2022-11-20T13:06:40;100302.06;;;4.78;84.11
37610;BME280;23457;51.966;8.230;2022-11-20T13:09:12;100298.44;;;4.73;82.79
37610;BME280;23457;51.966;8.230;2022-11-20T13:14:20;100296.16;;;4.80;82.06
37610;BME280;23457;51.966;8.230;2022-11-20T13:16:58;100293.09;;;4.92;80.05
37610;BME280;23457;51.966;8.230;2022-11-20T13:19:31;100288.25;;;4.76;81.93
37610;BME280;23457;51.966;8.230;2022-11-20T13:21:58;100294.66;;;4.61;81.79
37610;BME280;23457;51.966;8.230;2022-11-20T13:24:26;100297.47;;;4.69;81.57
37610;BME280;23457;51.966;8.230;2022-11-20T13:27:04;100291.47;;;4.68;81.16
37610;BME280;23457;51.966;8.230;2022-11-20T13:29:31;100292.31;;;4.67;81.23
37610;BME280;23457;51.966;8.230;2022-11-20T13:34:51;100280.97;;;4.62;81.09
37610;BME280;23457;51.966;8.230;2022-11-20T13:37:32;100277.34;;;4.57;81.42
37610;BME280;23457;51.966;8.230;2022-11-20T13:40:10;100270.28;;;4.50;81.76
37610;BME280;23457;51.966;8.230;2022-11-20T13:45:25;100252.00;;;4.69;80.76
37610;BME280;23457;51.966;8.230;2022-11-20T13:47:52;100240.78;;;4.66;80.54
37610;BME280;23457;51.966;8.230;2022-11-20T13:56:10;100223.72;;;4.44;81.78
37610;BME280;23457;51.966;8.230;2022-11-20T14:01:42;100218.59;;;4.44;81.80
37610;BME280;23457;51.966;8.230;2022-11-20T14:04:18;100217.06;;;4.49;81.40
37610;BME280;23457;51.966;8.230;2022-11-20T14:06:48;100206.97;;;4.55;81.05
37610;BME280;23457;51.966;8.230;2022-11-20T14:09:27;100213.66;;;4.50;81.13
37610;BME280;23457;51.966;8.230;2022-11-20T14:11:54;100193.41;;;4.34;81.54
37610;BME280;23457;51.966;8.230;2022-11-20T14:14:23;100183.94;;;4.33;81.77
37610;BME280;23457;51.966;8.230;2022-11-20T14:16:52;100182.78;;;4.50;81.79
37610;BME280;23457;51.966;8.230;2022-11-20T14:19:23;100177.72;;;4.53;80.74
37610;BME280;23457;51.966;8.230;2022-11-20T14:24:38;100179.31;;;4.23;82.87
37610;BME280;23457;51.966;8.230;2022-11-20T14:27:09;100181.59;;;4.14;83.22
37610;BME280;23457;51.966;8.230;2022-11-20T14:29:41;100176.84;;;4.26;81.61
37610;BME280;23457;51.966;8.230;2022-11-20T14:32:16;100179.84;;;4.13;81.67
37610;BME280;23457;51.966;8.230;2022-11-20T14:34:45;100181.72;;;4.18;82.95
37610;BME280;23457;51.966;8.230;2022-11-20T14:37:18;100193.00;;;4.22;83.00
37610;BME280;23457;51.966;8.230;2022-11-20T14:39:51;100182.31;;;4.10;83.50
37610;BME280;23457;51.966;8.230;2022-11-20T14:44:48;100172.84;;;4.09;84.76
37610;BME280;23457;51.966;8.230;2022-11-20T14:47:19;100171.97;;;4.08;84.70
37610;BME280;23457;51.966;8.230;2022-11-20T14:49:48;100170.38;;;4.12;84.85
37610;BME280;23457;51.966;8.230;2022-11-20T14:52:25;100153.72;;;4.01;84.87
37610;BME280;23457;51.966;8.230;2022-11-20T14:54:58;100142.09;;;4.12;84.35
37610;BME280;23457;51.966;8.230;2022-11-20T14:57:28;100140.16;;;4.06;84.83
37610;BME280;23457;51.966;8.230;2022-11-20T15:02:45;100138.47;;;4.07;84.58
37610;BME280;23457;51.966;8.230;2022-11-20T15:05:13;100135.38;;;3.90;84.51
37610;BME280;23457;51.966;8.230;2022-11-20T15:07:42;100127.59;;;3.88;85.26